Time;durP1;ratioP1;P1;durP2;ratioP2;P2;SDS_P1;SDS_P2;PMS_P1;PMS_P2;Temp;Humidity;BMP_temperature;BMP_pressure;BME280_temperature;BME280_humidity;BME280_pressure;Samples;Min_cycle;Max_cycle;Signal;HPM_P1;HPM_P2
2023/11/05 00:00:35;;;;;;;5.22;1.58;;;;;;;12.98;70.10;98680.56;5071464;28;20020;-40
2023/11/05 00:03:01;;;;;;;4.07;1.70;;;;;;;12.93;69.84;98699.19;5071657;28;20016;-40
2023/11/05 00:05:26;;;;;;;3.15;1.60;;;;;;;12.94;71.31;98705.31;5071233;28;20027;-41
2023/11/05 00:07:52;;;;;;;4.70;1.90;;;;;;;13.20;70.71;98710.00;5071349;28;20099;-39
2023/11/05 00:10:17;;;;;;;4.20;2.05;;;;;;;13.29;71.01;98705.03;5071293;28;20021;-41
2023/11/05 00:12:43;;;;;;;3.50;1.77;;;;;;;13.43;70.23;98713.53;5071193;28;20046;-40
2023/11/05 00:15:09;;;;;;;3.35;1.80;;;;;;;13.48;70.32;98722.44;5070966;28;20029;-40
2023/11/05 00:17:34;;;;;;;2.08;1.75;;;;;;;13.52;70.19;98735.28;5070930;28;20021;-41
2023/11/05 00:20:02;;;;;;;3.17;2.08;;;;;;;13.53;69.46;98734.25;5071043;28;20021;-41
2023/11/05 00:22:28;;;;;;;2.58;1.90;;;;;;;13.64;69.04;98741.34;5070838;28;20472;-40
2023/11/05 00:24:53;;;;;;;4.47;1.88;;;;;;;13.39;68.92;98739.13;5070666;28;20043;-39
2023/11/05 00:27:18;;;;;;;2.20;1.73;;;;;;;12.45;71.80;98724.53;5070843;28;20124;-40
2023/11/05 00:29:44;;;;;;;3.08;1.80;;;;;;;12.43;72.08;98729.31;5070505;28;20028;-39
2023/11/05 00:32:11;;;;;;;3.47;1.88;;;;;;;12.47;73.11;98725.13;5070483;28;20486;-40
2023/11/05 00:34:37;;;;;;;3.17;1.80;;;;;;;12.51;72.98;98718.28;5070656;28;20048;-39
2023/11/05 00:37:02;;;;;;;2.50;1.95;;;;;;;12.58;72.63;98724.25;5070858;28;20074;-40
2023/11/05 00:39:28;;;;;;;4.40;1.85;;;;;;;12.73;71.69;98733.56;5070637;28;20016;-40
2023/11/05 00:41:53;;;;;;;2.30;1.80;;;;;;;12.66;71.55;98728.38;5065948;28;20085;-40
2023/11/05 00:44:18;;;;;;;2.70;1.73;;;;;;;12.97;71.06;98728.88;5070466;28;20068;-40
2023/11/05 00:46:44;;;;;;;6.80;1.80;;;;;;;13.11;69.83;98730.16;5070487;28;20029;-39
2023/11/05 00:49:10;;;;;;;2.33;1.80;;;;;;;13.05;70.58;98734.59;5070370;28;20102;-40
2023/11/05 00:51:35;;;;;;;2.30;1.90;;;;;;;13.10;70.52;98731.22;5070342;28;20419;-40
2023/11/05 00:54:01;;;;;;;3.35;2.20;;;;;;;13.10;70.81;98737.38;5070344;28;20024;-40
2023/11/05 00:56:26;;;;;;;4.60;2.05;;;;;;;13.10;70.09;98732.03;5070444;28;20032;-39
2023/11/05 00:58:52;;;;;;;3.10;2.00;;;;;;;12.93;70.29;98727.72;5070605;28;20466;-39
2023/11/05 01:01:17;;;;;;;5.03;2.17;;;;;;;12.48;73.09;98732.09;5070396;28;20035;-39
2023/11/05 01:03:42;;;;;;;2.50;1.90;;;;;;;12.59;71.94;98717.06;5070365;28;20090;-39
2023/11/05 01:06:08;;;;;;;4.90;1.92;;;;;;;12.55;72.65;98697.25;5070476;28;20450;-40
2023/11/05 01:08:33;;;;;;;4.13;2.03;;;;;;;12.69;72.55;98698.53;5070291;28;20060;-39
2023/11/05 01:10:59;;;;;;;3.15;2.10;;;;;;;12.84;71.94;98701.44;5070419;28;20100;-40
2023/11/05 01:13:24;;;;;;;4.50;2.40;;;;;;;12.87;70.85;98700.13;5070097;28;20527;-40
2023/11/05 01:15:50;;;;;;;2.97;1.90;;;;;;;12.58;71.87;98705.56;5070282;28;20580;-40
2023/11/05 01:18:15;;;;;;;4.28;1.80;;;;;;;12.46;72.87;98704.84;5070269;28;20028;-39
2023/11/05 01:20:41;;;;;;;3.58;1.90;;;;;;;12.55;71.89;98694.59;5070299;28;20036;-40
2023/11/05 01:23:06;;;;;;;3.22;2.08;;;;;;;12.67;71.91;98695.31;5070130;28;20085;-40
2023/11/05 01:25:31;;;;;;;3.35;1.88;;;;;;;12.76;71.26;98693.84;5070211;28;20090;-40
2023/11/05 01:27:57;;;;;;;3.00;1.95;;;;;;;12.93;70.70;98687.69;5070365;28;20221;-39
2023/11/05 01:30:22;;;;;;;3.60;2.10;;;;;;;13.05;69.92;98693.75;5070215;28;20020;-40
2023/11/05 01:32:47;;;;;;;3.08;2.00;;;;;;;12.94;70.43;98694.66;5070061;28;20024;-40
2023/11/05 01:35:13;;;;;;;3.17;2.05;;;;;;;12.96;70.44;98684.53;5070126;28;20472;-39
2023/11/05 01:37:39;;;;;;;3.15;2.13;;;;;;;13.00;69.69;98667.75;5070027;28;20016;-40
2023/11/05 01:40:06;;;;;;;4.82;2.10;;;;;;;12.83;70.24;98657.13;5069912;28;20021;-40
2023/11/05 01:42:31;;;;;;;3.90;1.83;;;;;;;12.51;71.46;98651.56;5070029;28;20101;-39
2023/11/05 01:44:56;;;;;;;3.03;1.75;;;;;;;12.51;71.29;98652.34;5070462;28;20448;-40
2023/11/05 01:47:22;;;;;;;3.83;2.30;;;;;;;12.54;72.34;98661.72;5069851;28;20415;-39
2023/11/05 01:49:49;;;;;;;4.10;2.20;;;;;;;12.50;71.77;98687.28;5069709;28;20021;-39
2023/11/05 01:52:16;;;;;;;4.32;2.22;;;;;;;12.52;71.82;98688.66;5069880;28;20020;-40
2023/11/05 01:54:41;;;;;;;4.95;2.33;;;;;;;12.25;72.65;98682.34;5069673;28;20724;-39
2023/11/05 01:57:07;;;;;;;5.25;2.30;;;;;;;12.22;72.59;98670.28;5069702;28;20029;-40
2023/11/05 01:59:33;;;;;;;3.03;2.20;;;;;;;12.46;71.69;98684.28;5070274;28;20039;-40
2023/11/05 02:02:01;;;;;;;3.88;1.90;;;;;;;12.40;71.55;98671.91;5073542;28;20590;-40
2023/11/05 02:04:27;;;;;;;3.22;2.08;;;;;;;12.32;71.82;98683.78;5073588;28;20025;-39
2023/11/05 02:06:52;;;;;;;5.05;2.03;;;;;;;12.19;72.30;98691.28;5073448;28;20500;-37
2023/11/05 02:09:18;;;;;;;2.80;1.90;;;;;;;12.16;72.56;98684.56;5073500;28;20028;-39
2023/11/05 02:11:43;;;;;;;4.95;2.33;;;;;;;12.33;71.20;98681.94;5073278;28;20047;-39
2023/11/05 02:14:13;;;;;;;4.22;2.80;;;;;;;11.93;72.40;98688.16;5073048;28;20472;-39
2023/11/05 02:16:39;;;;;;;4.45;2.50;;;;;;;11.97;72.15;98704.47;5073353;28;20032;-38
2023/11/05 02:19:05;;;;;;;7.07;2.53;;;;;;;11.78;73.29;98701.94;5073093;28;20388;-39
2023/11/05 02:21:39;;;;;;;6.40;2.60;;;;;;;11.89;73.72;98685.13;5073095;28;20024;-39
2023/11/05 02:24:05;;;;;;;8.40;2.70;;;;;;;12.00;72.87;98688.00;5052744;28;20076;-39
2023/11/05 02:26:30;;;;;;;4.07;2.40;;;;;;;12.16;72.29;98687.22;5053091;28;20029;-40
2023/11/05 02:28:59;;;;;;;5.68;2.90;;;;;;;12.12;72.39;98696.75;5053150;28;20530;-39
2023/11/05 02:31:24;;;;;;;3.97;2.70;;;;;;;11.80;72.37;98643.88;5052799;28;20025;-39
2023/11/05 02:33:50;;;;;;;5.18;2.60;;;;;;;12.32;71.29;98693.66;5053010;28;20025;-39
2023/11/05 02:36:15;;;;;;;3.85;2.38;;;;;;;12.38;71.08;98699.91;5053005;28;20393;-39
2023/11/05 02:38:41;;;;;;;5.72;2.40;;;;;;;12.25;71.69;98690.34;5054022;28;20033;-39
2023/11/05 02:41:10;;;;;;;5.10;2.58;;;;;;;12.33;71.33;98693.41;5072994;28;20020;-38
2023/11/05 02:43:36;;;;;;;7.55;3.10;;;;;;;12.36;70.67;98688.66;5072074;28;20044;-40
2023/11/05 02:46:02;;;;;;;4.38;2.92;;;;;;;12.46;69.97;98700.28;5072628;28;20020;-39
2023/11/05 02:48:27;;;;;;;5.82;3.40;;;;;;;12.23;70.72;98689.75;5072271;28;20031;-38
2023/11/05 02:50:53;;;;;;;4.95;2.72;;;;;;;11.77;72.35;98696.88;5072558;28;20451;-39
2023/11/05 02:53:18;;;;;;;5.75;3.20;;;;;;;11.65;72.71;98702.22;5072424;28;20025;-39
2023/11/05 02:55:44;;;;;;;7.25;3.08;;;;;;;11.71;73.57;98703.97;5072799;28;20028;-40
2023/11/05 02:58:13;;;;;;;5.00;2.80;;;;;;;11.54;74.25;98719.88;5072362;28;20035;-39
2023/11/05 03:00:39;;;;;;;5.05;2.92;;;;;;;11.34;75.89;98720.22;5072250;28;20047;-39
2023/11/05 03:03:04;;;;;;;4.40;2.58;;;;;;;10.94;77.62;98719.06;5072240;28;20021;-39
2023/11/05 03:05:29;;;;;;;6.32;3.08;;;;;;;10.69;78.57;98711.31;5071976;28;20086;-39
2023/11/05 03:07:55;;;;;;;5.85;3.10;;;;;;;10.20;81.00;98715.06;5071678;28;20074;-40
2023/11/05 03:10:20;;;;;;;6.47;3.38;;;;;;;10.25;81.15;98734.63;5071710;28;20333;-39
2023/11/05 03:12:46;;;;;;;7.63;3.70;;;;;;;10.44;79.56;98723.97;5071640;28;20020;-40
2023/11/05 03:15:11;;;;;;;4.50;3.40;;;;;;;10.37;79.42;98718.75;5071188;28;20029;-37
2023/11/05 03:17:37;;;;;;;4.32;3.20;;;;;;;10.50;78.94;98731.84;5069105;28;20142;-40
2023/11/05 03:20:07;;;;;;;5.40;3.20;;;;;;;10.39;78.61;98731.81;5070454;28;20020;-39
2023/11/05 03:22:34;;;;;;;;;;;;;;;10.79;77.31;98723.22;5072291;28;20032;-38
2023/11/05 03:25:00;;;;;;;7.00;3.50;;;;;;;10.69;77.56;98737.09;5071254;28;20422;-39
2023/11/05 03:27:25;;;;;;;6.03;3.38;;;;;;;10.95;76.26;98733.22;5072021;28;20090;-38
2023/11/05 03:29:51;;;;;;;5.43;3.45;;;;;;;10.94;76.49;98731.56;5071420;28;20024;-39
2023/11/05 03:32:16;;;;;;;7.07;3.97;;;;;;;10.84;76.95;98726.03;5071785;28;20036;-39
2023/11/05 03:34:41;;;;;;;5.78;3.58;;;;;;;10.59;77.59;98732.34;5071555;28;20130;-40
2023/11/05 03:37:07;;;;;;;5.97;3.75;;;;;;;10.52;77.29;98737.75;5071758;28;20037;-39
2023/11/05 03:39:32;;;;;;;6.65;3.47;;;;;;;10.87;76.32;98739.69;5071682;28;20032;-39
2023/11/05 03:41:57;;;;;;;5.05;3.30;;;;;;;11.22;75.34;98738.09;5071714;28;20103;-40
2023/11/05 03:44:23;;;;;;;5.70;3.45;;;;;;;11.47;74.63;98743.16;5071655;28;20020;-39
2023/11/05 03:46:48;;;;;;;6.47;3.38;;;;;;;11.21;74.61;98753.22;5071341;28;20523;-39
2023/11/05 03:49:14;;;;;;;4.97;3.28;;;;;;;11.28;75.15;98759.25;5071642;28;20028;-39
2023/11/05 03:51:39;;;;;;;5.65;3.30;;;;;;;11.25;74.88;98750.91;5071375;28;20500;-39
2023/11/05 03:54:06;;;;;;;7.30;3.75;;;;;;;11.47;73.98;98762.59;5071419;28;20017;-39
2023/11/05 03:56:31;;;;;;;6.90;3.50;;;;;;;11.54;74.37;98763.31;5071470;28;20028;-39
2023/11/05 03:58:57;;;;;;;5.53;3.45;;;;;;;11.53;73.69;98763.53;5070762;28;20036;-39
2023/11/05 04:01:22;;;;;;;4.93;3.60;;;;;;;10.98;75.82;98771.88;5071563;28;20044;-39
2023/11/05 04:03:48;;;;;;;5.25;3.50;;;;;;;11.00;76.37;98772.44;5070708;28;20123;-40
2023/11/05 04:06:16;;;;;;;6.53;3.30;;;;;;;11.20;76.40;98766.81;5071263;28;20082;-40
2023/11/05 04:08:42;;;;;;;6.53;3.65;;;;;;;11.52;74.54;98776.06;5071077;28;20090;-40
2023/11/05 04:11:08;;;;;;;7.25;3.42;;;;;;;11.68;73.88;98776.38;5070581;28;20020;-38
2023/11/05 04:13:33;;;;;;;5.57;3.50;;;;;;;11.72;73.80;98772.19;5070727;28;20487;-39
2023/11/05 04:15:59;;;;;;;6.72;3.70;;;;;;;11.73;72.89;98777.31;5070908;28;20097;-40
2023/11/05 04:18:24;;;;;;;5.47;3.67;;;;;;;11.63;72.26;98761.09;5070724;28;20021;-40
2023/11/05 04:20:50;;;;;;;6.82;3.70;;;;;;;11.39;72.86;98759.50;5070363;28;20040;-39
2023/11/05 04:23:15;;;;;;;8.40;3.90;;;;;;;11.40;72.98;98759.25;5069160;28;20094;-40
2023/11/05 04:25:41;;;;;;;8.45;4.05;;;;;;;11.39;72.88;98754.19;5070279;28;20048;-39
2023/11/05 04:28:07;;;;;;;8.52;4.32;;;;;;;11.18;73.98;98756.38;5070486;28;20021;-39
2023/11/05 04:30:32;;;;;;;9.52;4.10;;;;;;;11.20;75.01;98761.47;5070392;28;20025;-40
2023/11/05 04:32:58;;;;;;;7.22;4.35;;;;;;;11.26;74.45;98766.66;5070383;28;20499;-40
2023/11/05 04:35:23;;;;;;;6.28;4.25;;;;;;;11.11;74.58;98772.44;5070639;28;20032;-40
2023/11/05 04:37:49;;;;;;;7.50;4.00;;;;;;;11.40;74.53;98771.75;5071305;28;20020;-40
2023/11/05 04:40:14;;;;;;;7.13;4.45;;;;;;;11.32;74.61;98776.38;5071574;28;20056;-40
2023/11/05 04:42:40;;;;;;;6.72;4.00;;;;;;;11.55;73.30;98780.91;5071057;28;20077;-40
2023/11/05 04:45:06;;;;;;;9.93;6.20;;;;;;;11.52;73.23;98776.06;5071118;28;20096;-39
2023/11/05 04:47:31;;;;;;;12.23;5.40;;;;;;;11.48;73.50;98780.22;5071007;28;20471;-39
2023/11/05 04:49:57;;;;;;;10.38;5.20;;;;;;;11.33;73.72;98783.34;5071237;28;20028;-39
2023/11/05 04:52:23;;;;;;;7.95;4.50;;;;;;;11.32;74.56;98776.38;5071346;28;20043;-40
2023/11/05 04:54:49;;;;;;;9.60;4.72;;;;;;;11.41;74.15;98790.19;5070937;28;20073;-40
2023/11/05 04:57:14;;;;;;;8.00;3.90;;;;;;;11.44;74.16;98796.91;5071048;28;20082;-40
2023/11/05 04:59:41;;;;;;;8.02;4.20;;;;;;;11.63;73.64;98802.91;5070917;28;20119;-40
2023/11/05 05:02:07;;;;;;;7.40;4.88;;;;;;;11.73;72.60;98805.81;5071253;28;20024;-39
2023/11/05 05:04:33;;;;;;;7.45;5.03;;;;;;;11.84;72.45;98794.31;5071331;28;20052;-40
2023/11/05 05:06:59;;;;;;;7.40;4.45;;;;;;;11.69;72.82;98793.97;5071712;28;20052;-40
2023/11/05 05:09:24;;;;;;;8.85;4.80;;;;;;;11.56;72.71;98811.03;5071204;28;20092;-40
2023/11/05 05:11:50;;;;;;;7.60;5.03;;;;;;;11.67;72.50;98817.38;5071248;28;20559;-40
2023/11/05 05:14:15;;;;;;;9.27;5.40;;;;;;;11.08;74.97;98823.50;5070533;28;20440;-40
2023/11/05 05:16:40;;;;;;;9.73;6.35;;;;;;;11.24;75.29;98782.06;5071217;28;20043;-43
2023/11/05 05:19:06;;;;;;;11.98;5.90;;;;;;;11.67;74.47;98818.22;5071288;28;20545;-40
2023/11/05 05:21:31;;;;;;;9.93;5.65;;;;;;;12.12;73.83;98828.25;5071480;28;20024;-40
2023/11/05 05:23:57;;;;;;;8.10;5.55;;;;;;;12.37;72.88;98826.31;5070963;28;20459;-40
2023/11/05 05:26:22;;;;;;;8.95;4.97;;;;;;;12.57;72.11;98823.25;5071332;28;20075;-40
2023/11/05 05:28:48;;;;;;;11.38;5.80;;;;;;;12.80;71.62;98820.47;5071290;28;20165;-40
2023/11/05 05:31:16;;;;;;;9.60;5.25;;;;;;;12.97;70.58;98817.00;5070974;28;20031;-40
2023/11/05 05:33:42;;;;;;;7.80;4.90;;;;;;;13.24;70.00;98827.84;5070991;28;20024;-40
2023/11/05 05:36:07;;;;;;;7.57;4.78;;;;;;;13.22;69.33;98830.75;5073824;28;20093;-41
2023/11/05 05:38:33;;;;;;;9.95;5.20;;;;;;;13.38;68.97;98833.72;5075200;28;20032;-40
2023/11/05 05:40:59;;;;;;;10.85;5.82;;;;;;;13.53;68.11;98823.25;5074765;28;20105;-40
2023/11/05 05:43:24;;;;;;;11.32;5.68;;;;;;;13.51;68.31;98820.00;5074626;28;20021;-40
2023/11/05 05:45:50;;;;;;;10.07;5.18;;;;;;;13.49;68.38;98836.28;5074691;28;20027;-40
2023/11/05 05:48:15;;;;;;;7.70;5.18;;;;;;;13.60;68.28;98829.25;5074713;28;20023;-40
2023/11/05 05:50:41;;;;;;;9.73;6.30;;;;;;;13.75;67.34;98819.81;5074443;28;20385;-41
2023/11/05 05:53:07;;;;;;;17.00;10.25;;;;;;;13.75;67.92;98827.84;5073318;28;20052;-40
2023/11/05 05:55:32;;;;;;;25.77;15.90;;;;;;;13.58;68.82;98814.50;5074110;28;20111;-40
2023/11/05 05:57:58;;;;;;;11.18;7.43;;;;;;;13.63;68.32;98804.69;5073660;28;20033;-39
2023/11/05 06:00:24;;;;;;;10.10;5.35;;;;;;;13.65;68.54;98810.59;5071692;28;20021;-40
2023/11/05 06:02:50;;;;;;;57.83;36.80;;;;;;;13.89;68.65;98808.50;5074926;28;20035;-40
2023/11/05 06:05:16;;;;;;;32.65;21.02;;;;;;;13.95;68.30;98820.06;5074505;28;20025;-40
2023/11/05 06:07:41;;;;;;;10.25;6.25;;;;;;;14.08;67.31;98819.72;5071654;28;20020;-40
2023/11/05 06:10:09;;;;;;;9.80;5.28;;;;;;;14.32;66.89;98827.50;5061509;28;20483;-42
2023/11/05 06:12:34;;;;;;;10.32;5.80;;;;;;;14.63;65.51;98833.22;5073560;28;20025;-41
2023/11/05 06:15:00;;;;;;;8.95;5.10;;;;;;;14.75;66.01;98835.75;5073984;28;20020;-42
2023/11/05 06:17:26;;;;;;;7.15;4.47;;;;;;;14.94;66.15;98834.31;5073788;28;20510;-41
2023/11/05 06:19:51;;;;;;;6.93;4.82;;;;;;;15.11;64.82;98828.84;5074566;28;20016;-41
2023/11/05 06:22:17;;;;;;;9.98;5.35;;;;;;;15.39;63.96;98832.28;5074005;28;20016;-41
2023/11/05 06:24:43;;;;;;;8.85;5.40;;;;;;;15.64;61.10;98816.34;5073414;28;20040;-41
2023/11/05 06:27:08;;;;;;;7.32;5.38;;;;;;;15.63;62.53;98808.56;5073934;28;20036;-41
2023/11/05 06:29:33;;;;;;;8.57;5.20;;;;;;;15.85;62.38;98805.75;5073710;28;20074;-39
2023/11/05 06:31:59;;;;;;;7.82;5.30;;;;;;;16.19;61.82;98810.75;5073942;28;20451;-40
2023/11/05 06:34:24;;;;;;;8.05;4.80;;;;;;;16.46;60.50;98802.50;5073310;28;20038;-40
2023/11/05 06:37:02;;;;;;;8.85;4.43;;;;;;;16.95;59.37;98807.44;5070064;28;20046;-41
2023/11/05 06:39:28;;;;;;;8.43;4.53;;;;;;;17.43;58.29;98785.66;5071956;28;20028;-40
2023/11/05 06:41:53;;;;;;;6.70;4.13;;;;;;;17.91;56.17;98783.38;5072732;28;20070;-40
2023/11/05 06:44:19;;;;;;;7.75;4.70;;;;;;;18.26;54.61;98795.09;5073392;28;20020;-40
2023/11/05 06:46:45;;;;;;;8.23;4.50;;;;;;;18.49;54.71;98800.91;5072437;28;20408;-40
2023/11/05 06:49:10;;;;;;;12.13;6.65;;;;;;;18.62;54.13;98799.47;5073128;28;20098;-40
2023/11/05 06:51:35;;;;;;;12.10;5.75;;;;;;;19.31;51.27;98801.13;5073139;28;20041;-41
2023/11/05 06:54:01;;;;;;;6.25;4.25;;;;;;;19.59;50.17;98793.31;5070948;28;20035;-41
2023/11/05 06:56:27;;;;;;;6.88;4.25;;;;;;;19.86;48.74;98773.88;5071974;28;20482;-40
2023/11/05 06:58:52;;;;;;;7.47;4.10;;;;;;;19.71;46.41;98765.94;5073065;28;20021;-40
2023/11/05 07:01:18;;;;;;;6.53;4.15;;;;;;;19.63;47.64;98770.06;5072692;28;20020;-40
2023/11/05 07:03:44;;;;;;;8.15;4.20;;;;;;;19.36;50.92;98778.69;5070954;28;20025;-40
2023/11/05 07:06:13;;;;;;;7.00;3.28;;;;;;;18.73;49.62;98785.66;5072702;28;20058;-38
2023/11/05 07:08:38;;;;;;;7.72;4.80;;;;;;;19.20;52.99;98777.25;5072623;28;20055;-39
2023/11/05 07:11:05;;;;;;;5.57;3.00;;;;;;;19.14;48.25;98769.19;5072305;28;20627;-41
2023/11/05 07:13:32;;;;;;;8.10;3.30;;;;;;;18.89;48.16;98774.81;5070948;28;20017;-40
2023/11/05 07:15:57;;;;;;;4.88;3.25;;;;;;;18.81;49.15;98783.47;5071667;28;20040;-42
2023/11/05 07:18:23;;;;;;;4.93;3.38;;;;;;;19.05;49.11;98783.56;5069945;28;20591;-42
2023/11/05 07:20:48;;;;;;;7.55;3.40;;;;;;;19.30;49.91;98783.31;5071512;28;20048;-42
2023/11/05 07:23:14;;;;;;;5.57;3.92;;;;;;;19.56;47.49;98783.09;5071023;28;20036;-40
2023/11/05 07:25:40;;;;;;;5.63;3.65;;;;;;;19.90;48.11;98768.72;5072070;28;20062;-40
2023/11/05 07:28:05;;;;;;;5.25;3.63;;;;;;;20.25;47.21;98772.03;5072264;28;20021;-40
2023/11/05 07:30:31;;;;;;;3.72;3.22;;;;;;;20.34;45.85;98783.81;5072895;28;20078;-40
2023/11/05 07:32:56;;;;;;;6.03;3.55;;;;;;;20.18;46.41;98782.38;5072347;28;20139;-39
2023/11/05 07:35:23;;;;;;;4.93;3.40;;;;;;;20.40;47.13;98773.72;5072805;28;20036;-38
2023/11/05 07:37:49;;;;;;;5.45;3.53;;;;;;;20.77;46.03;98777.53;5072682;28;20406;-39
2023/11/05 07:40:14;;;;;;;4.97;3.22;;;;;;;20.64;45.61;98779.09;5072513;28;20028;-39
2023/11/05 07:42:41;;;;;;;12.23;7.45;;;;;;;21.03;59.11;98797.66;5071852;28;20020;-40
2023/11/05 07:45:07;;;;;;;8.77;5.90;;;;;;;21.95;54.24;98794.44;5071646;28;20043;-39
2023/11/05 07:47:32;;;;;;;10.63;5.70;;;;;;;22.62;51.60;98791.16;5072030;28;20025;-38
2023/11/05 07:49:58;;;;;;;9.73;5.05;;;;;;;23.15;48.51;98779.59;5072357;28;20023;-38
2023/11/05 07:52:23;;;;;;;8.80;4.60;;;;;;;23.72;45.94;98787.06;5072617;28;20017;-39
2023/11/05 07:54:48;;;;;;;5.30;2.63;;;;;;;24.10;40.07;98777.59;5072343;28;20358;-42
2023/11/05 07:57:14;;;;;;;4.63;2.55;;;;;;;24.18;37.70;98771.41;5071107;28;20028;-36
2023/11/05 07:59:40;;;;;;;3.88;3.00;;;;;;;23.48;38.39;98765.72;5071774;28;20028;-39
2023/11/05 08:02:05;;;;;;;3.90;2.83;;;;;;;22.50;41.55;98763.75;5072300;28;20482;-39
2023/11/05 08:04:31;;;;;;;3.17;2.55;;;;;;;22.14;42.36;98773.47;5072488;28;20028;-38
2023/11/05 08:06:56;;;;;;;6.82;3.00;;;;;;;22.56;41.83;98784.22;5072440;28;20038;-40
2023/11/05 08:09:23;;;;;;;3.72;2.67;;;;;;;22.99;41.47;98789.19;5072420;28;20400;-39
2023/11/05 08:11:53;;;;;;;4.28;2.60;;;;;;;22.92;41.87;98776.03;5072318;28;20145;-39
2023/11/05 08:14:19;;;;;;;5.00;2.58;;;;;;;23.38;40.41;98763.25;5071743;28;20530;-39
2023/11/05 08:16:44;;;;;;;4.47;2.65;;;;;;;23.33;39.62;98776.97;5072382;28;20025;-39
2023/11/05 08:19:09;;;;;;;5.82;2.35;;;;;;;23.63;40.00;98769.94;5071842;28;20024;-36
2023/11/05 08:21:35;;;;;;;4.93;2.63;;;;;;;23.64;39.37;98770.72;5072274;28;20016;-39
2023/11/05 08:24:00;;;;;;;4.18;2.45;;;;;;;23.95;39.45;98766.06;5072223;28;20068;-38
2023/11/05 08:26:26;;;;;;;5.20;2.80;;;;;;;23.96;37.31;98753.28;5072124;28;20031;-41
2023/11/05 08:28:51;;;;;;;4.38;2.33;;;;;;;23.83;37.22;98746.06;5072349;28;20115;-39
2023/11/05 08:31:16;;;;;;;4.05;2.58;;;;;;;23.66;36.93;98736.69;5072280;28;20151;-40
2023/11/05 08:33:42;;;;;;;3.22;2.60;;;;;;;23.23;38.25;98732.69;5071535;28;20024;-39
2023/11/05 08:36:08;;;;;;;3.67;2.35;;;;;;;23.09;38.77;98731.19;5071598;28;20032;-40
2023/11/05 08:38:33;;;;;;;3.95;2.40;;;;;;;23.32;38.28;98723.78;5071564;28;20052;-38
2023/11/05 08:40:59;;;;;;;2.85;2.47;;;;;;;22.50;40.96;98720.41;5071644;28;20025;-38
2023/11/05 08:43:25;;;;;;;4.32;2.20;;;;;;;23.10;39.71;98711.09;5071575;28;20384;-41
2023/11/05 08:45:50;;;;;;;3.00;2.30;;;;;;;23.46;38.33;98707.44;5071415;28;20036;-38
2023/11/05 08:48:17;;;;;;;4.25;2.25;;;;;;;23.68;37.82;98703.81;5071011;28;20403;-39
2023/11/05 08:50:42;;;;;;;4.15;2.38;;;;;;;23.82;37.25;98688.22;5070088;28;20047;-40
2023/11/05 08:53:08;;;;;;;3.92;2.10;;;;;;;23.85;36.95;98681.34;5069679;28;20422;-39
2023/11/05 08:55:37;;;;;;;2.72;1.92;;;;;;;23.87;36.82;98684.53;5069932;28;20093;-38
2023/11/05 08:58:02;;;;;;;2.15;1.80;;;;;;;23.91;36.02;98680.91;5070207;28;20029;-40
2023/11/05 09:00:32;;;;;;;4.57;2.10;;;;;;;23.36;37.53;98676.72;5070206;28;20043;-39
2023/11/05 09:02:57;;;;;;;3.85;2.30;;;;;;;23.00;38.51;98690.44;5069978;28;20040;-40
2023/11/05 09:05:23;;;;;;;5.90;3.20;;;;;;;22.91;38.10;98689.56;5070383;28;20032;-40
2023/11/05 09:07:51;;;;;;;3.53;1.95;;;;;;;22.79;38.56;98669.25;5070765;28;20025;-36
2023/11/05 09:10:17;;;;;;;7.43;1.98;;;;;;;22.35;38.34;98681.72;5070904;28;20028;-40
2023/11/05 09:12:43;;;;;;;2.70;1.80;;;;;;;22.01;39.37;98672.16;5062833;28;20048;-40
2023/11/05 09:15:09;;;;;;;4.63;2.10;;;;;;;22.65;39.26;98669.31;5063383;28;20403;-38
2023/11/05 09:17:35;;;;;;;4.60;2.40;;;;;;;22.80;37.81;98661.91;5070802;28;20111;-39
2023/11/05 09:20:00;;;;;;;4.72;2.40;;;;;;;23.15;37.45;98649.34;5070701;28;20035;-40
2023/11/05 09:22:25;;;;;;;3.80;2.30;;;;;;;22.57;38.73;98639.44;5070614;28;20551;-39
2023/11/05 09:24:51;;;;;;;2.42;1.85;;;;;;;22.57;38.84;98629.41;5070507;28;20037;-38
2023/11/05 09:27:16;;;;;;;3.95;1.92;;;;;;;22.60;38.41;98630.72;5070284;28;20032;-42
2023/11/05 09:29:41;;;;;;;4.10;2.20;;;;;;;22.23;39.65;98640.78;5069344;28;20032;-40
2023/11/05 09:32:08;;;;;;;3.80;2.72;;;;;;;22.69;39.37;98636.16;5071062;28;20107;-40
2023/11/05 09:34:34;;;;;;;4.07;1.63;;;;;;;22.68;38.83;98624.53;5070545;28;20028;-41
2023/11/05 09:37:00;;;;;;;3.50;1.92;;;;;;;22.84;38.31;98624.91;5069965;28;20040;-40
2023/11/05 09:39:26;;;;;;;4.05;1.70;;;;;;;22.40;38.96;98624.66;5070025;28;20111;-40
2023/11/05 09:41:52;;;;;;;3.17;1.90;;;;;;;21.90;39.24;98597.66;5070436;28;20101;-40
2023/11/05 09:44:21;;;;;;;7.10;1.60;;;;;;;21.82;38.97;98607.31;5070275;28;20056;-40
2023/11/05 09:46:50;;;;;;;2.60;1.48;;;;;;;21.75;40.15;98608.84;5070011;28;20039;-39
2023/11/05 09:49:15;;;;;;;2.28;1.60;;;;;;;21.58;41.51;98598.63;5068914;28;20032;-36
2023/11/05 09:51:45;;;;;;;2.13;1.40;;;;;;;21.12;41.06;98596.84;5069434;28;20480;-39
2023/11/05 09:54:11;;;;;;;1.77;1.20;;;;;;;20.93;41.51;98578.03;5070367;28;20100;-40
2023/11/05 09:56:36;;;;;;;2.50;1.30;;;;;;;20.70;42.48;98569.78;5070610;28;20528;-39
2023/11/05 09:59:02;;;;;;;2.03;1.30;;;;;;;20.04;43.93;98572.47;5070361;28;20024;-40
2023/11/05 10:01:30;;;;;;;1.75;1.00;;;;;;;20.63;44.34;98567.47;5070760;28;20029;-41
2023/11/05 10:03:56;;;;;;;1.80;1.20;;;;;;;20.74;43.13;98580.81;5070746;28;20073;-38
2023/11/05 10:06:21;;;;;;;3.03;1.17;;;;;;;21.09;42.03;98588.25;5070474;28;20270;-41
2023/11/05 10:08:47;;;;;;;1.67;1.00;;;;;;;21.60;40.36;98588.31;5070419;28;20062;-40
2023/11/05 10:11:12;;;;;;;3.08;1.00;;;;;;;21.16;39.89;98589.75;5070756;28;20102;-40
2023/11/05 10:13:38;;;;;;;1.90;1.00;;;;;;;21.02;40.55;98579.72;5070137;28;20112;-40
2023/11/05 10:16:04;;;;;;;1.20;0.85;;;;;;;21.37;40.09;98579.31;5069069;28;20115;-37
2023/11/05 10:18:33;;;;;;;3.80;1.20;;;;;;;21.69;39.97;98581.06;5070024;28;20030;-40
2023/11/05 10:20:59;;;;;;;2.00;1.15;;;;;;;21.64;40.69;98571.13;5071446;28;20055;-39
2023/11/05 10:23:25;;;;;;;2.88;1.05;;;;;;;21.53;41.04;98566.25;5074165;28;20476;-39
2023/11/05 10:25:53;;;;;;;1.50;1.13;;;;;;;21.27;41.32;98555.97;5074124;28;20488;-40
2023/11/05 10:28:20;;;;;;;1.73;1.10;;;;;;;20.83;41.36;98566.31;5074032;28;20103;-35
2023/11/05 10:30:49;;;;;;;1.40;1.10;;;;;;;21.47;40.97;98566.38;5073672;28;20032;-40
2023/11/05 10:33:15;;;;;;;0.80;0.77;;;;;;;21.89;39.37;98565.47;5073974;28;20567;-41
2023/11/05 10:35:41;;;;;;;0.75;0.60;;;;;;;21.38;38.24;98567.34;5073735;28;20111;-41
2023/11/05 10:38:28;;;;;;;0.63;0.60;;;;;;;21.65;36.91;98561.13;5073292;28;20028;-39
2023/11/05 10:40:55;;;;;;;0.43;0.43;;;;;;;22.25;35.73;98547.25;5073045;28;20066;-39
2023/11/05 10:43:21;;;;;;;4.45;2.85;;;;;;;22.76;36.05;98544.34;5073331;28;20545;-42
2023/11/05 10:45:48;;;;;;;0.77;0.75;;;;;;;22.80;35.23;98535.25;5073429;28;20028;-39
2023/11/05 10:48:15;;;;;;;2.50;1.02;;;;;;;23.02;35.25;98525.44;5073069;28;20028;-40
2023/11/05 10:50:42;;;;;;;2.15;0.90;;;;;;;23.04;35.99;98525.94;5073224;28;20033;-40
2023/11/05 10:53:07;;;;;;;1.35;0.73;;;;;;;23.20;35.14;98527.09;5072784;28;20476;-41
2023/11/05 10:55:37;;;;;;;2.90;0.90;;;;;;;22.82;35.80;98507.81;5073124;28;20036;-39
2023/11/05 10:58:06;;;;;;;1.30;0.77;;;;;;;22.42;36.00;98519.44;5072859;28;20059;-39
2023/11/05 11:00:44;;;;;;;1.35;0.77;;;;;;;22.52;36.80;98506.75;5072848;28;20094;-41
2023/11/05 11:03:13;;;;;;;1.10;0.70;;;;;;;22.33;36.39;98496.13;5072888;28;20492;-40
2023/11/05 11:05:42;;;;;;;2.25;1.15;;;;;;;22.62;36.28;98487.50;5072952;28;20032;-40
2023/11/05 11:08:22;;;;;;;1.20;0.77;;;;;;;21.95;36.67;98497.34;5073102;28;20040;-40
2023/11/05 11:10:49;;;;;;;0.77;0.77;;;;;;;21.60;37.69;98504.41;5072968;28;20021;-39
2023/11/05 11:13:19;;;;;;;1.20;0.95;;;;;;;21.86;37.46;98494.56;5072363;28;20539;-40
2023/11/05 11:15:46;;;;;;;0.98;0.85;;;;;;;21.65;38.04;98480.72;5072812;28;20032;-39
2023/11/05 11:18:19;;;;;;;2.17;1.10;;;;;;;22.08;37.88;98478.59;5072981;28;20057;-41
2023/11/05 11:20:48;;;;;;;2.63;1.10;;;;;;;21.94;39.22;98478.69;5072491;28;20036;-38
2023/11/05 11:23:18;;;;;;;2.17;1.10;;;;;;;22.44;38.44;98473.06;5072101;28;20518;-41
2023/11/05 11:25:56;;;;;;;2.35;1.25;;;;;;;22.40;38.76;98470.19;5069636;28;20468;-40
2023/11/05 11:28:22;;;;;;;4.05;1.40;;;;;;;21.93;39.03;98468.94;5065018;28;20028;-37